Aviation Digital Data Service (ADDS)

Output produced by METARs form (2153 UTC 19 February 2018)
found at http://www.aviationweather.gov/adds/metars/
 
TAF TXKF 191735Z 1918/2018 08012KT 9999 BKN035